sensor_id;sensor_type;location;lat;lon;timestamp;P1;durP1;ratioP1;P2;durP2;ratioP2
71166;SDS011;58864;45.928;20.078;2023-07-13T00:00:10;6.33;;;2.43;;
71166;SDS011;58864;45.928;20.078;2023-07-13T00:02:36;7.40;;;2.88;;
71166;SDS011;58864;45.928;20.078;2023-07-13T00:05:00;9.63;;;3.10;;
71166;SDS011;58864;45.928;20.078;2023-07-13T00:07:25;8.57;;;2.70;;
71166;SDS011;58864;45.928;20.078;2023-07-13T00:09:49;7.50;;;2.60;;
71166;SDS011;58864;45.928;20.078;2023-07-13T00:12:30;6.78;;;2.65;;
71166;SDS011;58864;45.928;20.078;2023-07-13T00:14:57;6.73;;;2.60;;
71166;SDS011;58864;45.928;20.078;2023-07-13T00:17:22;7.82;;;3.17;;
71166;SDS011;58864;45.928;20.078;2023-07-13T00:19:47;9.07;;;2.80;;
71166;SDS011;58864;45.928;20.078;2023-07-13T00:22:12;8.93;;;3.17;;
71166;SDS011;58864;45.928;20.078;2023-07-13T00:24:36;9.25;;;3.28;;
71166;SDS011;58864;45.928;20.078;2023-07-13T00:27:05;8.20;;;3.00;;
71166;SDS011;58864;45.928;20.078;2023-07-13T00:29:30;11.57;;;3.10;;
71166;SDS011;58864;45.928;20.078;2023-07-13T00:31:54;10.37;;;2.80;;
71166;SDS011;58864;45.928;20.078;2023-07-13T00:34:18;5.60;;;2.70;;
71166;SDS011;58864;45.928;20.078;2023-07-13T00:36:43;15.20;;;3.67;;
71166;SDS011;58864;45.928;20.078;2023-07-13T00:39:07;13.95;;;3.30;;
71166;SDS011;58864;45.928;20.078;2023-07-13T00:41:32;11.20;;;3.27;;
71166;SDS011;58864;45.928;20.078;2023-07-13T00:43:56;12.70;;;3.87;;
71166;SDS011;58864;45.928;20.078;2023-07-13T00:46:22;11.57;;;4.00;;
71166;SDS011;58864;45.928;20.078;2023-07-13T00:48:47;20.20;;;4.17;;
71166;SDS011;58864;45.928;20.078;2023-07-13T00:51:13;16.00;;;3.83;;
71166;SDS011;58864;45.928;20.078;2023-07-13T00:53:38;13.63;;;3.67;;
71166;SDS011;58864;45.928;20.078;2023-07-13T00:56:03;12.87;;;3.40;;
71166;SDS011;58864;45.928;20.078;2023-07-13T00:58:28;10.30;;;3.40;;
71166;SDS011;58864;45.928;20.078;2023-07-13T01:00:53;11.15;;;3.75;;
71166;SDS011;58864;45.928;20.078;2023-07-13T01:03:18;14.80;;;3.83;;
71166;SDS011;58864;45.928;20.078;2023-07-13T01:05:42;11.57;;;3.50;;
71166;SDS011;58864;45.928;20.078;2023-07-13T01:08:07;9.52;;;3.47;;
71166;SDS011;58864;45.928;20.078;2023-07-13T01:10:32;7.95;;;3.00;;
71166;SDS011;58864;45.928;20.078;2023-07-13T01:13:02;10.18;;;3.25;;
71166;SDS011;58864;45.928;20.078;2023-07-13T01:17:59;9.45;;;3.10;;
71166;SDS011;58864;45.928;20.078;2023-07-13T01:20:24;10.15;;;3.78;;
71166;SDS011;58864;45.928;20.078;2023-07-13T01:22:49;11.17;;;3.60;;
71166;SDS011;58864;45.928;20.078;2023-07-13T01:25:13;13.17;;;3.33;;
71166;SDS011;58864;45.928;20.078;2023-07-13T01:27:38;8.90;;;3.47;;
71166;SDS011;58864;45.928;20.078;2023-07-13T01:30:05;8.15;;;3.40;;
71166;SDS011;58864;45.928;20.078;2023-07-13T01:32:30;10.20;;;3.17;;
71166;SDS011;58864;45.928;20.078;2023-07-13T01:34:56;7.85;;;2.70;;
71166;SDS011;58864;45.928;20.078;2023-07-13T01:37:21;7.90;;;3.00;;
71166;SDS011;58864;45.928;20.078;2023-07-13T01:39:46;10.30;;;3.33;;
71166;SDS011;58864;45.928;20.078;2023-07-13T01:42:11;9.43;;;3.30;;
71166;SDS011;58864;45.928;20.078;2023-07-13T01:44:35;7.33;;;3.03;;
71166;SDS011;58864;45.928;20.078;2023-07-13T01:47:00;7.28;;;2.97;;
71166;SDS011;58864;45.928;20.078;2023-07-13T01:49:25;6.20;;;2.40;;
71166;SDS011;58864;45.928;20.078;2023-07-13T01:51:49;6.73;;;2.47;;
71166;SDS011;58864;45.928;20.078;2023-07-13T01:54:14;9.37;;;3.20;;
71166;SDS011;58864;45.928;20.078;2023-07-13T01:56:38;7.83;;;2.90;;
71166;SDS011;58864;45.928;20.078;2023-07-13T01:59:03;7.93;;;2.92;;
71166;SDS011;58864;45.928;20.078;2023-07-13T02:01:28;7.07;;;2.83;;
71166;SDS011;58864;45.928;20.078;2023-07-13T02:03:52;6.70;;;2.50;;
71166;SDS011;58864;45.928;20.078;2023-07-13T02:06:17;12.03;;;5.43;;
71166;SDS011;58864;45.928;20.078;2023-07-13T02:08:41;5.73;;;2.60;;
71166;SDS011;58864;45.928;20.078;2023-07-13T02:11:06;6.25;;;2.55;;
71166;SDS011;58864;45.928;20.078;2023-07-13T02:13:31;8.60;;;2.70;;
71166;SDS011;58864;45.928;20.078;2023-07-13T02:15:55;8.63;;;2.55;;
71166;SDS011;58864;45.928;20.078;2023-07-13T02:18:20;7.53;;;2.70;;
71166;SDS011;58864;45.928;20.078;2023-07-13T02:20:44;6.50;;;2.57;;
71166;SDS011;58864;45.928;20.078;2023-07-13T02:23:09;6.30;;;2.40;;
71166;SDS011;58864;45.928;20.078;2023-07-13T02:25:34;6.22;;;2.83;;
71166;SDS011;58864;45.928;20.078;2023-07-13T02:27:58;6.00;;;2.63;;
71166;SDS011;58864;45.928;20.078;2023-07-13T02:30:23;5.73;;;2.37;;
71166;SDS011;58864;45.928;20.078;2023-07-13T02:32:48;6.07;;;2.30;;
71166;SDS011;58864;45.928;20.078;2023-07-13T02:35:13;6.97;;;2.53;;
71166;SDS011;58864;45.928;20.078;2023-07-13T02:37:37;6.73;;;2.60;;
71166;SDS011;58864;45.928;20.078;2023-07-13T02:40:02;8.00;;;2.83;;
71166;SDS011;58864;45.928;20.078;2023-07-13T02:42:32;8.90;;;2.77;;
71166;SDS011;58864;45.928;20.078;2023-07-13T02:44:56;7.85;;;2.70;;
71166;SDS011;58864;45.928;20.078;2023-07-13T02:47:21;13.43;;;3.77;;
71166;SDS011;58864;45.928;20.078;2023-07-13T02:49:45;10.30;;;3.50;;
71166;SDS011;58864;45.928;20.078;2023-07-13T02:52:09;9.93;;;4.30;;
71166;SDS011;58864;45.928;20.078;2023-07-13T02:54:34;13.05;;;4.38;;
71166;SDS011;58864;45.928;20.078;2023-07-13T02:56:58;10.67;;;4.77;;
71166;SDS011;58864;45.928;20.078;2023-07-13T02:59:23;9.33;;;3.80;;
71166;SDS011;58864;45.928;20.078;2023-07-13T03:01:47;12.15;;;4.60;;
71166;SDS011;58864;45.928;20.078;2023-07-13T03:04:12;13.07;;;5.13;;
71166;SDS011;58864;45.928;20.078;2023-07-13T03:06:36;14.10;;;4.70;;
71166;SDS011;58864;45.928;20.078;2023-07-13T03:09:01;12.07;;;5.10;;
71166;SDS011;58864;45.928;20.078;2023-07-13T03:11:25;11.80;;;4.87;;
71166;SDS011;58864;45.928;20.078;2023-07-13T03:13:50;13.50;;;4.93;;
71166;SDS011;58864;45.928;20.078;2023-07-13T03:16:15;12.90;;;5.13;;
71166;SDS011;58864;45.928;20.078;2023-07-13T03:18:39;15.70;;;5.60;;
71166;SDS011;58864;45.928;20.078;2023-07-13T03:21:04;12.10;;;4.53;;
71166;SDS011;58864;45.928;20.078;2023-07-13T03:23:29;12.57;;;4.23;;
71166;SDS011;58864;45.928;20.078;2023-07-13T03:26:10;12.60;;;4.90;;
71166;SDS011;58864;45.928;20.078;2023-07-13T03:28:36;12.63;;;4.82;;
71166;SDS011;58864;45.928;20.078;2023-07-13T03:31:11;11.50;;;5.07;;
71166;SDS011;58864;45.928;20.078;2023-07-13T03:33:41;13.75;;;4.90;;
71166;SDS011;58864;45.928;20.078;2023-07-13T03:36:06;14.40;;;5.00;;
71166;SDS011;58864;45.928;20.078;2023-07-13T03:38:32;10.73;;;5.07;;
71166;SDS011;58864;45.928;20.078;2023-07-13T03:40:57;13.25;;;5.00;;
71166;SDS011;58864;45.928;20.078;2023-07-13T03:43:21;17.50;;;5.27;;
71166;SDS011;58864;45.928;20.078;2023-07-13T03:45:46;13.63;;;4.90;;
71166;SDS011;58864;45.928;20.078;2023-07-13T03:48:10;14.20;;;5.25;;
71166;SDS011;58864;45.928;20.078;2023-07-13T03:50:35;10.87;;;4.77;;
71166;SDS011;58864;45.928;20.078;2023-07-13T03:52:59;13.20;;;5.40;;
71166;SDS011;58864;45.928;20.078;2023-07-13T03:55:24;16.55;;;5.63;;
71166;SDS011;58864;45.928;20.078;2023-07-13T03:57:53;19.03;;;5.63;;
71166;SDS011;58864;45.928;20.078;2023-07-13T04:00:21;15.23;;;5.63;;
71166;SDS011;58864;45.928;20.078;2023-07-13T04:02:46;12.57;;;6.20;;
71166;SDS011;58864;45.928;20.078;2023-07-13T04:05:13;12.03;;;5.33;;
71166;SDS011;58864;45.928;20.078;2023-07-13T04:07:38;16.52;;;6.47;;
71166;SDS011;58864;45.928;20.078;2023-07-13T04:10:02;12.13;;;5.33;;
71166;SDS011;58864;45.928;20.078;2023-07-13T04:12:27;10.80;;;5.15;;
71166;SDS011;58864;45.928;20.078;2023-07-13T04:14:51;14.97;;;5.83;;
71166;SDS011;58864;45.928;20.078;2023-07-13T04:17:16;13.80;;;5.10;;
71166;SDS011;58864;45.928;20.078;2023-07-13T04:19:40;14.87;;;6.20;;
71166;SDS011;58864;45.928;20.078;2023-07-13T04:22:04;10.13;;;5.05;;
71166;SDS011;58864;45.928;20.078;2023-07-13T04:24:29;15.43;;;5.50;;
71166;SDS011;58864;45.928;20.078;2023-07-13T04:26:53;15.17;;;6.17;;
71166;SDS011;58864;45.928;20.078;2023-07-13T04:29:18;15.40;;;5.80;;
71166;SDS011;58864;45.928;20.078;2023-07-13T04:31:42;10.87;;;5.37;;
71166;SDS011;58864;45.928;20.078;2023-07-13T04:34:07;12.90;;;5.30;;
71166;SDS011;58864;45.928;20.078;2023-07-13T04:36:31;13.43;;;5.40;;
71166;SDS011;58864;45.928;20.078;2023-07-13T04:38:56;13.97;;;5.50;;
71166;SDS011;58864;45.928;20.078;2023-07-13T04:41:20;15.73;;;5.67;;
71166;SDS011;58864;45.928;20.078;2023-07-13T04:43:45;16.02;;;5.30;;
71166;SDS011;58864;45.928;20.078;2023-07-13T04:46:11;17.47;;;5.60;;
71166;SDS011;58864;45.928;20.078;2023-07-13T04:48:37;18.00;;;6.15;;
71166;SDS011;58864;45.928;20.078;2023-07-13T04:51:01;16.27;;;6.25;;
71166;SDS011;58864;45.928;20.078;2023-07-13T04:53:26;20.40;;;6.13;;
71166;SDS011;58864;45.928;20.078;2023-07-13T04:55:51;18.30;;;5.60;;
71166;SDS011;58864;45.928;20.078;2023-07-13T04:58:15;16.10;;;5.23;;
71166;SDS011;58864;45.928;20.078;2023-07-13T05:00:40;14.35;;;5.13;;
71166;SDS011;58864;45.928;20.078;2023-07-13T05:03:04;14.47;;;5.13;;
71166;SDS011;58864;45.928;20.078;2023-07-13T05:05:29;17.33;;;5.05;;
71166;SDS011;58864;45.928;20.078;2023-07-13T05:07:54;11.23;;;4.30;;
71166;SDS011;58864;45.928;20.078;2023-07-13T05:10:18;11.97;;;4.03;;
71166;SDS011;58864;45.928;20.078;2023-07-13T05:12:43;10.02;;;3.97;;
71166;SDS011;58864;45.928;20.078;2023-07-13T05:15:08;20.07;;;4.97;;
71166;SDS011;58864;45.928;20.078;2023-07-13T05:17:32;9.48;;;4.15;;
71166;SDS011;58864;45.928;20.078;2023-07-13T05:19:57;9.57;;;4.03;;
71166;SDS011;58864;45.928;20.078;2023-07-13T05:22:21;9.57;;;4.20;;
71166;SDS011;58864;45.928;20.078;2023-07-13T05:24:46;9.97;;;3.43;;
71166;SDS011;58864;45.928;20.078;2023-07-13T05:27:10;12.87;;;4.53;;
71166;SDS011;58864;45.928;20.078;2023-07-13T05:29:35;12.10;;;4.33;;
71166;SDS011;58864;45.928;20.078;2023-07-13T05:31:59;19.27;;;4.35;;
71166;SDS011;58864;45.928;20.078;2023-07-13T05:34:24;22.23;;;4.97;;
71166;SDS011;58864;45.928;20.078;2023-07-13T05:36:49;19.67;;;5.27;;
71166;SDS011;58864;45.928;20.078;2023-07-13T05:39:13;17.50;;;4.27;;
71166;SDS011;58864;45.928;20.078;2023-07-13T05:41:38;11.90;;;4.63;;
71166;SDS011;58864;45.928;20.078;2023-07-13T05:44:02;11.33;;;4.40;;
71166;SDS011;58864;45.928;20.078;2023-07-13T05:46:27;13.57;;;4.20;;
71166;SDS011;58864;45.928;20.078;2023-07-13T05:48:51;15.35;;;4.53;;
71166;SDS011;58864;45.928;20.078;2023-07-13T05:51:16;15.33;;;5.07;;
71166;SDS011;58864;45.928;20.078;2023-07-13T05:53:40;15.10;;;4.87;;
71166;SDS011;58864;45.928;20.078;2023-07-13T05:56:05;13.90;;;4.78;;
71166;SDS011;58864;45.928;20.078;2023-07-13T05:58:29;18.07;;;4.57;;
71166;SDS011;58864;45.928;20.078;2023-07-13T06:01:01;16.47;;;4.47;;
71166;SDS011;58864;45.928;20.078;2023-07-13T06:03:28;14.13;;;4.38;;
71166;SDS011;58864;45.928;20.078;2023-07-13T06:05:52;16.55;;;4.63;;
71166;SDS011;58864;45.928;20.078;2023-07-13T06:08:17;16.27;;;4.63;;
71166;SDS011;58864;45.928;20.078;2023-07-13T06:10:41;19.23;;;4.70;;
71166;SDS011;58864;45.928;20.078;2023-07-13T06:13:06;13.83;;;4.10;;
71166;SDS011;58864;45.928;20.078;2023-07-13T06:15:30;22.08;;;5.05;;
71166;SDS011;58864;45.928;20.078;2023-07-13T06:17:55;18.87;;;4.67;;
71166;SDS011;58864;45.928;20.078;2023-07-13T06:20:19;12.03;;;3.80;;
71166;SDS011;58864;45.928;20.078;2023-07-13T06:22:44;17.40;;;4.37;;
71166;SDS011;58864;45.928;20.078;2023-07-13T06:25:08;12.98;;;3.78;;
71166;SDS011;58864;45.928;20.078;2023-07-13T06:27:33;20.37;;;3.40;;
71166;SDS011;58864;45.928;20.078;2023-07-13T06:29:57;10.67;;;3.67;;
71166;SDS011;58864;45.928;20.078;2023-07-13T06:32:22;14.00;;;3.08;;
71166;SDS011;58864;45.928;20.078;2023-07-13T06:34:46;7.13;;;2.03;;
71166;SDS011;58864;45.928;20.078;2023-07-13T06:37:11;11.37;;;2.37;;
71166;SDS011;58864;45.928;20.078;2023-07-13T06:39:35;7.22;;;2.38;;
71166;SDS011;58864;45.928;20.078;2023-07-13T06:42:00;6.67;;;1.90;;
71166;SDS011;58864;45.928;20.078;2023-07-13T06:44:24;9.95;;;1.50;;
71166;SDS011;58864;45.928;20.078;2023-07-13T06:46:49;7.57;;;1.17;;
71166;SDS011;58864;45.928;20.078;2023-07-13T06:49:13;5.50;;;1.20;;
71166;SDS011;58864;45.928;20.078;2023-07-13T06:51:38;5.78;;;1.30;;
71166;SDS011;58864;45.928;20.078;2023-07-13T06:54:02;8.00;;;1.80;;
71166;SDS011;58864;45.928;20.078;2023-07-13T06:56:27;5.80;;;1.40;;
71166;SDS011;58864;45.928;20.078;2023-07-13T06:58:51;8.33;;;1.50;;
71166;SDS011;58864;45.928;20.078;2023-07-13T07:01:16;7.00;;;1.20;;
71166;SDS011;58864;45.928;20.078;2023-07-13T07:03:41;6.95;;;1.35;;
71166;SDS011;58864;45.928;20.078;2023-07-13T07:08:38;5.22;;;1.50;;
71166;SDS011;58864;45.928;20.078;2023-07-13T07:11:03;6.87;;;1.70;;
71166;SDS011;58864;45.928;20.078;2023-07-13T07:13:27;4.97;;;1.20;;
71166;SDS011;58864;45.928;20.078;2023-07-13T07:15:52;5.15;;;1.30;;
71166;SDS011;58864;45.928;20.078;2023-07-13T07:18:17;5.03;;;1.20;;
71166;SDS011;58864;45.928;20.078;2023-07-13T07:20:41;11.02;;;1.60;;
71166;SDS011;58864;45.928;20.078;2023-07-13T07:23:06;7.77;;;1.80;;
71166;SDS011;58864;45.928;20.078;2023-07-13T07:25:30;6.50;;;1.70;;
71166;SDS011;58864;45.928;20.078;2023-07-13T07:27:56;5.25;;;1.80;;
71166;SDS011;58864;45.928;20.078;2023-07-13T07:30:21;6.37;;;1.40;;
71166;SDS011;58864;45.928;20.078;2023-07-13T07:32:45;10.93;;;1.80;;
71166;SDS011;58864;45.928;20.078;2023-07-13T07:35:09;7.97;;;1.90;;
71166;SDS011;58864;45.928;20.078;2023-07-13T07:37:34;8.43;;;1.60;;
71166;SDS011;58864;45.928;20.078;2023-07-13T07:39:58;6.10;;;1.90;;
71166;SDS011;58864;45.928;20.078;2023-07-13T07:42:23;9.23;;;2.07;;
71166;SDS011;58864;45.928;20.078;2023-07-13T07:44:47;7.03;;;1.93;;
71166;SDS011;58864;45.928;20.078;2023-07-13T07:47:12;7.87;;;2.00;;
71166;SDS011;58864;45.928;20.078;2023-07-13T07:49:37;12.03;;;2.60;;
71166;SDS011;58864;45.928;20.078;2023-07-13T07:52:02;5.10;;;1.60;;
71166;SDS011;58864;45.928;20.078;2023-07-13T07:54:26;7.77;;;1.90;;
71166;SDS011;58864;45.928;20.078;2023-07-13T07:56:51;5.53;;;1.57;;
71166;SDS011;58864;45.928;20.078;2023-07-13T07:59:15;8.23;;;1.73;;
71166;SDS011;58864;45.928;20.078;2023-07-13T08:01:40;7.90;;;1.73;;
71166;SDS011;58864;45.928;20.078;2023-07-13T08:04:04;5.07;;;1.47;;
71166;SDS011;58864;45.928;20.078;2023-07-13T08:06:29;5.45;;;1.90;;
71166;SDS011;58864;45.928;20.078;2023-07-13T08:08:53;8.53;;;1.50;;
71166;SDS011;58864;45.928;20.078;2023-07-13T08:11:18;4.67;;;1.40;;
71166;SDS011;58864;45.928;20.078;2023-07-13T08:13:42;6.63;;;1.60;;
71166;SDS011;58864;45.928;20.078;2023-07-13T08:16:07;5.93;;;1.70;;
71166;SDS011;58864;45.928;20.078;2023-07-13T08:18:31;4.85;;;1.70;;
71166;SDS011;58864;45.928;20.078;2023-07-13T08:20:56;6.87;;;1.77;;
71166;SDS011;58864;45.928;20.078;2023-07-13T08:23:20;8.67;;;2.23;;
71166;SDS011;58864;45.928;20.078;2023-07-13T08:25:50;9.73;;;2.08;;
71166;SDS011;58864;45.928;20.078;2023-07-13T08:28:18;4.88;;;2.08;;
71166;SDS011;58864;45.928;20.078;2023-07-13T08:30:44;6.63;;;2.30;;
71166;SDS011;58864;45.928;20.078;2023-07-13T08:33:08;7.22;;;2.00;;
71166;SDS011;58864;45.928;20.078;2023-07-13T08:35:33;6.77;;;2.00;;
71166;SDS011;58864;45.928;20.078;2023-07-13T08:37:57;6.60;;;1.90;;
71166;SDS011;58864;45.928;20.078;2023-07-13T08:40:24;5.32;;;1.98;;
71166;SDS011;58864;45.928;20.078;2023-07-13T08:42:52;10.45;;;2.10;;
71166;SDS011;58864;45.928;20.078;2023-07-13T08:45:23;6.40;;;1.60;;
71166;SDS011;58864;45.928;20.078;2023-07-13T08:47:52;6.60;;;1.73;;
71166;SDS011;58864;45.928;20.078;2023-07-13T08:50:19;7.50;;;1.67;;
71166;SDS011;58864;45.928;20.078;2023-07-13T08:52:48;11.05;;;1.60;;
71166;SDS011;58864;45.928;20.078;2023-07-13T08:55:14;6.63;;;1.43;;
71166;SDS011;58864;45.928;20.078;2023-07-13T08:57:41;7.38;;;1.42;;
71166;SDS011;58864;45.928;20.078;2023-07-13T09:00:10;7.20;;;1.60;;
71166;SDS011;58864;45.928;20.078;2023-07-13T09:05:16;6.53;;;1.70;;
71166;SDS011;58864;45.928;20.078;2023-07-13T09:10:49;7.45;;;1.92;;
71166;SDS011;58864;45.928;20.078;2023-07-13T09:15:51;5.30;;;1.83;;
71166;SDS011;58864;45.928;20.078;2023-07-13T09:20:49;5.72;;;1.58;;
71166;SDS011;58864;45.928;20.078;2023-07-13T09:23:20;4.97;;;1.27;;
71166;SDS011;58864;45.928;20.078;2023-07-13T09:25:47;8.03;;;1.50;;
71166;SDS011;58864;45.928;20.078;2023-07-13T09:28:15;4.57;;;1.50;;
71166;SDS011;58864;45.928;20.078;2023-07-13T09:30:51;6.05;;;1.55;;
71166;SDS011;58864;45.928;20.078;2023-07-13T09:33:31;6.00;;;1.30;;
71166;SDS011;58864;45.928;20.078;2023-07-13T09:35:58;5.90;;;1.40;;
71166;SDS011;58864;45.928;20.078;2023-07-13T09:38:24;7.18;;;1.38;;
71166;SDS011;58864;45.928;20.078;2023-07-13T09:40:56;7.90;;;1.40;;
71166;SDS011;58864;45.928;20.078;2023-07-13T09:44:00;6.40;;;1.20;;
71166;SDS011;58864;45.928;20.078;2023-07-13T09:46:37;5.88;;;1.38;;
71166;SDS011;58864;45.928;20.078;2023-07-13T09:49:03;5.03;;;1.30;;
71166;SDS011;58864;45.928;20.078;2023-07-13T09:51:28;3.90;;;0.93;;
71166;SDS011;58864;45.928;20.078;2023-07-13T09:53:53;7.13;;;0.90;;
71166;SDS011;58864;45.928;20.078;2023-07-13T09:56:19;6.30;;;1.38;;
71166;SDS011;58864;45.928;20.078;2023-07-13T09:58:44;6.17;;;1.27;;
71166;SDS011;58864;45.928;20.078;2023-07-13T10:01:08;6.13;;;1.02;;
71166;SDS011;58864;45.928;20.078;2023-07-13T10:03:34;5.10;;;1.20;;
71166;SDS011;58864;45.928;20.078;2023-07-13T10:06:14;6.15;;;1.27;;
71166;SDS011;58864;45.928;20.078;2023-07-13T10:08:44;5.77;;;1.17;;
71166;SDS011;58864;45.928;20.078;2023-07-13T10:13:52;7.13;;;1.80;;
71166;SDS011;58864;45.928;20.078;2023-07-13T10:16:20;6.47;;;1.13;;
71166;SDS011;58864;45.928;20.078;2023-07-13T10:18:50;6.88;;;1.52;;
71166;SDS011;58864;45.928;20.078;2023-07-13T10:21:18;4.53;;;1.10;;
71166;SDS011;58864;45.928;20.078;2023-07-13T10:23:48;6.78;;;1.10;;
71166;SDS011;58864;45.928;20.078;2023-07-13T10:26:17;8.35;;;1.35;;
71166;SDS011;58864;45.928;20.078;2023-07-13T10:28:46;5.28;;;1.40;;
71166;SDS011;58864;45.928;20.078;2023-07-13T10:31:13;4.70;;;1.25;;
71166;SDS011;58864;45.928;20.078;2023-07-13T10:33:39;6.63;;;1.30;;
71166;SDS011;58864;45.928;20.078;2023-07-13T10:36:28;5.88;;;1.40;;
71166;SDS011;58864;45.928;20.078;2023-07-13T10:38:55;6.68;;;1.50;;
71166;SDS011;58864;45.928;20.078;2023-07-13T10:41:21;5.70;;;1.40;;
71166;SDS011;58864;45.928;20.078;2023-07-13T10:43:48;9.63;;;1.75;;
71166;SDS011;58864;45.928;20.078;2023-07-13T10:46:15;6.05;;;1.40;;
71166;SDS011;58864;45.928;20.078;2023-07-13T10:48:42;6.70;;;2.10;;
71166;SDS011;58864;45.928;20.078;2023-07-13T10:51:08;9.80;;;1.73;;
71166;SDS011;58864;45.928;20.078;2023-07-13T10:53:35;6.77;;;1.60;;
71166;SDS011;58864;45.928;20.078;2023-07-13T10:56:02;5.43;;;1.30;;
71166;SDS011;58864;45.928;20.078;2023-07-13T10:58:41;6.53;;;1.42;;
71166;SDS011;58864;45.928;20.078;2023-07-13T11:03:31;7.70;;;1.40;;
71166;SDS011;58864;45.928;20.078;2023-07-13T11:06:28;4.82;;;1.52;;
71166;SDS011;58864;45.928;20.078;2023-07-13T11:09:19;7.65;;;1.30;;
71166;SDS011;58864;45.928;20.078;2023-07-13T11:12:01;7.03;;;1.37;;
71166;SDS011;58864;45.928;20.078;2023-07-13T11:14:31;6.05;;;1.48;;
71166;SDS011;58864;45.928;20.078;2023-07-13T11:16:59;9.75;;;1.83;;
71166;SDS011;58864;45.928;20.078;2023-07-13T11:30:37;5.65;;;1.50;;
71166;SDS011;58864;45.928;20.078;2023-07-13T11:33:10;6.30;;;1.60;;
71166;SDS011;58864;45.928;20.078;2023-07-13T11:36:06;9.30;;;1.75;;
71166;SDS011;58864;45.928;20.078;2023-07-13T11:39:02;6.43;;;1.50;;
71166;SDS011;58864;45.928;20.078;2023-07-13T11:41:29;10.00;;;2.28;;
71166;SDS011;58864;45.928;20.078;2023-07-13T11:44:13;7.10;;;1.80;;
71166;SDS011;58864;45.928;20.078;2023-07-13T11:46:39;12.15;;;2.15;;
71166;SDS011;58864;45.928;20.078;2023-07-13T11:49:11;7.03;;;1.60;;
71166;SDS011;58864;45.928;20.078;2023-07-13T11:51:39;6.90;;;1.50;;
71166;SDS011;58864;45.928;20.078;2023-07-13T11:54:47;4.05;;;1.20;;
71166;SDS011;58864;45.928;20.078;2023-07-13T11:56:57;6.55;;;1.63;;
71166;SDS011;58864;45.928;20.078;2023-07-13T11:59:25;6.32;;;1.65;;
71166;SDS011;58864;45.928;20.078;2023-07-13T12:01:51;9.17;;;1.80;;
71166;SDS011;58864;45.928;20.078;2023-07-13T12:06:46;5.53;;;1.50;;
71166;SDS011;58864;45.928;20.078;2023-07-13T12:09:11;5.73;;;1.47;;
71166;SDS011;58864;45.928;20.078;2023-07-13T12:11:36;7.10;;;1.60;;
71166;SDS011;58864;45.928;20.078;2023-07-13T12:14:02;4.17;;;1.40;;
71166;SDS011;58864;45.928;20.078;2023-07-13T12:16:33;6.13;;;1.55;;
71166;SDS011;58864;45.928;20.078;2023-07-13T12:19:02;10.07;;;1.88;;
71166;SDS011;58864;45.928;20.078;2023-07-13T12:21:31;8.73;;;1.60;;
71166;SDS011;58864;45.928;20.078;2023-07-13T12:23:56;6.68;;;1.80;;
71166;SDS011;58864;45.928;20.078;2023-07-13T12:26:21;5.73;;;1.67;;
71166;SDS011;58864;45.928;20.078;2023-07-13T12:28:49;5.37;;;1.53;;
71166;SDS011;58864;45.928;20.078;2023-07-13T12:34:01;6.05;;;1.55;;
71166;SDS011;58864;45.928;20.078;2023-07-13T12:36:29;5.60;;;1.35;;
71166;SDS011;58864;45.928;20.078;2023-07-13T12:38:54;7.43;;;1.60;;
71166;SDS011;58864;45.928;20.078;2023-07-13T12:41:19;5.88;;;1.60;;
71166;SDS011;58864;45.928;20.078;2023-07-13T12:43:44;6.18;;;1.63;;
71166;SDS011;58864;45.928;20.078;2023-07-13T12:46:17;11.53;;;1.90;;
71166;SDS011;58864;45.928;20.078;2023-07-13T12:48:47;6.63;;;1.75;;
71166;SDS011;58864;45.928;20.078;2023-07-13T12:51:14;5.90;;;1.60;;
71166;SDS011;58864;45.928;20.078;2023-07-13T12:53:40;5.27;;;1.60;;
71166;SDS011;58864;45.928;20.078;2023-07-13T12:56:08;6.63;;;1.73;;
71166;SDS011;58864;45.928;20.078;2023-07-13T12:58:36;6.05;;;1.50;;
71166;SDS011;58864;45.928;20.078;2023-07-13T13:01:01;5.65;;;1.58;;
71166;SDS011;58864;45.928;20.078;2023-07-13T13:03:31;3.90;;;1.30;;
71166;SDS011;58864;45.928;20.078;2023-07-13T13:06:01;5.10;;;1.60;;
71166;SDS011;58864;45.928;20.078;2023-07-13T13:08:29;8.10;;;1.75;;
71166;SDS011;58864;45.928;20.078;2023-07-13T13:10:56;4.55;;;1.50;;
71166;SDS011;58864;45.928;20.078;2023-07-13T13:13:20;6.13;;;1.90;;
71166;SDS011;58864;45.928;20.078;2023-07-13T13:15:45;6.90;;;1.60;;
71166;SDS011;58864;45.928;20.078;2023-07-13T13:18:14;6.13;;;1.65;;
71166;SDS011;58864;45.928;20.078;2023-07-13T13:20:40;6.77;;;1.70;;
71166;SDS011;58864;45.928;20.078;2023-07-13T13:23:07;5.22;;;1.77;;
71166;SDS011;58864;45.928;20.078;2023-07-13T13:25:35;7.50;;;2.10;;
71166;SDS011;58864;45.928;20.078;2023-07-13T13:28:00;7.47;;;1.90;;
71166;SDS011;58864;45.928;20.078;2023-07-13T13:30:24;5.60;;;1.50;;
71166;SDS011;58864;45.928;20.078;2023-07-13T13:32:49;6.45;;;1.70;;
71166;SDS011;58864;45.928;20.078;2023-07-13T13:35:17;8.13;;;2.00;;
71166;SDS011;58864;45.928;20.078;2023-07-13T13:37:43;6.47;;;1.63;;
71166;SDS011;58864;45.928;20.078;2023-07-13T13:40:26;4.85;;;1.70;;
71166;SDS011;58864;45.928;20.078;2023-07-13T13:42:51;6.53;;;1.80;;
71166;SDS011;58864;45.928;20.078;2023-07-13T13:45:16;6.20;;;2.20;;
71166;SDS011;58864;45.928;20.078;2023-07-13T13:47:41;5.68;;;1.70;;
71166;SDS011;58864;45.928;20.078;2023-07-13T13:50:14;4.95;;;1.65;;
71166;SDS011;58864;45.928;20.078;2023-07-13T13:52:41;7.90;;;1.80;;
71166;SDS011;58864;45.928;20.078;2023-07-13T13:55:16;4.73;;;1.70;;
71166;SDS011;58864;45.928;20.078;2023-07-13T13:57:45;5.20;;;1.70;;
71166;SDS011;58864;45.928;20.078;2023-07-13T14:00:12;6.07;;;1.88;;
71166;SDS011;58864;45.928;20.078;2023-07-13T14:02:38;5.22;;;1.75;;
71166;SDS011;58864;45.928;20.078;2023-07-13T14:05:03;6.80;;;2.00;;
71166;SDS011;58864;45.928;20.078;2023-07-13T14:07:27;5.22;;;2.03;;
71166;SDS011;58864;45.928;20.078;2023-07-13T14:09:54;8.57;;;1.80;;
71166;SDS011;58864;45.928;20.078;2023-07-13T14:12:20;5.95;;;2.00;;
71166;SDS011;58864;45.928;20.078;2023-07-13T14:14:45;6.00;;;1.70;;
71166;SDS011;58864;45.928;20.078;2023-07-13T14:17:21;7.20;;;1.87;;
71166;SDS011;58864;45.928;20.078;2023-07-13T14:19:48;5.93;;;1.83;;
71166;SDS011;58864;45.928;20.078;2023-07-13T14:22:15;7.18;;;1.95;;
71166;SDS011;58864;45.928;20.078;2023-07-13T14:24:39;8.13;;;2.00;;
71166;SDS011;58864;45.928;20.078;2023-07-13T14:27:04;6.97;;;1.77;;
71166;SDS011;58864;45.928;20.078;2023-07-13T14:29:28;7.18;;;1.98;;
71166;SDS011;58864;45.928;20.078;2023-07-13T14:31:56;4.80;;;1.63;;
71166;SDS011;58864;45.928;20.078;2023-07-13T14:34:20;8.40;;;2.37;;
71166;SDS011;58864;45.928;20.078;2023-07-13T14:36:49;11.82;;;2.53;;
71166;SDS011;58864;45.928;20.078;2023-07-13T14:39:15;6.70;;;2.33;;
71166;SDS011;58864;45.928;20.078;2023-07-13T14:41:40;6.65;;;2.55;;
71166;SDS011;58864;45.928;20.078;2023-07-13T14:44:15;8.17;;;2.20;;
71166;SDS011;58864;45.928;20.078;2023-07-13T14:46:41;6.88;;;2.20;;
71166;SDS011;58864;45.928;20.078;2023-07-13T14:49:13;7.35;;;2.30;;
71166;SDS011;58864;45.928;20.078;2023-07-13T14:51:38;11.47;;;2.47;;
71166;SDS011;58864;45.928;20.078;2023-07-13T14:54:03;6.97;;;2.35;;
71166;SDS011;58864;45.928;20.078;2023-07-13T14:56:29;7.18;;;2.50;;
71166;SDS011;58864;45.928;20.078;2023-07-13T14:58:54;8.97;;;2.63;;
71166;SDS011;58864;45.928;20.078;2023-07-13T15:01:19;6.20;;;2.35;;
71166;SDS011;58864;45.928;20.078;2023-07-13T15:03:45;8.70;;;2.20;;